Terminal Aerodrome Forecast
Issued by NWS

Home | Current Version | Previous Version | Text Only | Print | Product List | Glossary On
Versions: 1 2 3 4 5 6 7 8 9 10 11 12 13 14
000
FTUS46 KSEW 280703 AAA
TAFHQM
TAF AMD
KHQM 280703Z 2807/2906 24006KT 6SM BR BKN025 OVC045
     FM280900 17004KT 5SM -RA BR OVC025
     FM281300 15012KT 4SM -RA BR OVC020
     FM281900 20012KT 5SM -SHRA BKN025 BKN050
     FM282000 24014KT P6SM -SHRA BKN030 BKN050
     FM290000 24012KT P6SM OVC025=

USA.gov is the U.S. government's official web portal to all federal, state and local government web resources and services.